EGPF/GLA METAR and TAF weather

Enter ICAO airport designator
Station Type Date Time Source
EGPF METAR 2022/12/04 11:50 UTC NOAA

EGPF 041150Z AUTO 05007KT 9999 -RA SCT025 BKN030 05/03 Q1026


Station Type Date Time Source
EGPF Decoded METAR 2022/12/04 11:50 UTC NOAA

Glasgow Airport, United Kingdom (EGPF) 55-52N 004-26W 0M
Dec 04, 2022 - 06:50 AM EST / 2022.12.04 1150 UTC
Wind: from the NE (050 degrees) at 8 MPH (7 KT):0
Visibility: greater than 7 mile(s):0
Sky conditions: mostly cloudy
Weather: light rain
Temperature: 41 F (5 C)
Dew Point: 37 F (3 C)
Relative Humidity: 86%
Pressure (altimeter): 30.30 in. Hg (1026 hPa)
ob: EGPF 041150Z AUTO 05007KT 9999 -RA SCT025 BKN030 05/03 Q1026
cycle: 12

Station Type Date Time Source
EGPF TAF 2022/12/04 12:09 UTC NOAA

TAF EGPF 041054Z 0412/0512 06008KT 9999 FEW030 PROB30
TEMPO 0412/0510 6000 SHRA BKN014

Example: see airport list